Time;durP1;ratioP1;P1;durP2;ratioP2;P2;SDS_P1;SDS_P2;PMS_P1;PMS_P2;Temp;Humidity;BMP_temperature;BMP_pressure;BME280_temperature;BME280_humidity;BME280_pressure;Samples;Min_cycle;Max_cycle;Signal;HPM_P1;HPM_P2
2023/04/26 00:00:07;;;;;;;7.00;3.20;;;;;;;7.43;100.00;99785.51;105857;1251;74383;-50
2023/04/26 00:02:35;;;;;;;6.20;2.90;;;;;;;7.40;100.00;99809.07;105919;1251;65811;-50
2023/04/26 00:05:02;;;;;;;5.20;2.80;;;;;;;7.39;100.00;99818.03;105970;1253;74387;-50
2023/04/26 00:07:30;;;;;;;5.60;3.30;;;;;;;7.36;100.00;99819.61;105985;1253;63501;-50
2023/04/26 00:09:57;;;;;;;13.30;3.50;;;;;;;7.33;100.00;99843.86;105925;1251;61268;-50
2023/04/26 00:12:24;;;;;;;10.50;3.40;;;;;;;7.30;100.00;99861.75;105919;1257;76323;-49
2023/04/26 00:14:52;;;;;;;5.70;2.50;;;;;;;7.29;100.00;99869.84;105940;1251;67078;-51
2023/04/26 00:17:19;;;;;;;4.70;2.60;;;;;;;7.29;100.00;99858.33;105901;1251;75445;-50
2023/04/26 00:19:46;;;;;;;5.70;3.00;;;;;;;7.28;100.00;99841.36;105915;1251;62523;-50
2023/04/26 00:22:14;;;;;;;8.10;3.50;;;;;;;7.27;100.00;99826.77;105927;1255;61748;-50
2023/04/26 00:24:42;;;;;;;6.40;3.40;;;;;;;7.25;100.00;99818.75;105907;1251;76274;-50
2023/04/26 00:27:09;;;;;;;10.40;3.50;;;;;;;7.20;100.00;99808.17;105897;1257;66835;-50
2023/04/26 00:29:36;;;;;;;3.90;3.00;;;;;;;7.16;100.00;99799.83;105892;1253;74124;-50
2023/04/26 00:32:04;;;;;;;6.50;3.00;;;;;;;7.12;100.00;99798.85;105655;1259;63127;-50
2023/04/26 00:34:35;;;;;;;6.40;2.90;;;;;;;7.09;100.00;99808.52;105657;1258;61969;-50
2023/04/26 00:37:02;;;;;;;6.60;3.30;;;;;;;7.03;100.00;99829.68;105707;1254;75107;-50
2023/04/26 00:39:30;;;;;;;6.50;3.30;;;;;;;6.98;100.00;99847.96;105670;1254;65240;-50
2023/04/26 00:41:57;;;;;;;11.10;3.50;;;;;;;6.92;100.00;99874.11;105619;1259;74691;-50
2023/04/26 00:44:24;;;;;;;9.40;3.20;;;;;;;6.84;100.00;99899.92;105623;1259;64184;-50
2023/04/26 00:46:52;;;;;;;4.20;2.90;;;;;;;6.76;100.00;99931.40;105639;1255;63102;-50
2023/04/26 00:49:21;;;;;;;7.50;3.00;;;;;;;6.69;100.00;99966.12;105685;1259;76429;-50
2023/04/26 00:51:50;;;;;;;5.10;3.20;;;;;;;6.60;100.00;99994.50;105689;1254;67096;-50
2023/04/26 00:54:17;;;;;;;9.20;2.90;;;;;;;6.53;100.00;100036.22;105667;1254;73466;-54
2023/04/26 00:56:44;;;;;;;4.60;3.30;;;;;;;6.44;100.00;100079.14;105621;1254;63866;-50
2023/04/26 00:59:12;;;;;;;10.40;3.40;;;;;;;6.41;100.00;100127.50;105450;1258;61686;-50
2023/04/26 01:01:41;;;;;;;6.10;2.90;;;;;;;6.42;100.00;100179.10;105619;1254;74633;-52
2023/04/26 01:04:08;;;;;;;9.60;3.40;;;;;;;6.44;100.00;100224.17;105688;1253;67083;-53
2023/04/26 01:06:37;;;;;;;10.80;3.40;;;;;;;6.45;100.00;100261.38;105688;1257;74460;-51
2023/04/26 01:09:08;;;;;;;3.20;2.80;;;;;;;6.48;100.00;100300.30;105669;1256;63087;-51
2023/04/26 01:11:36;;;;;;;6.80;3.80;;;;;;;6.50;100.00;100327.18;105620;1254;62922;-55
2023/04/26 01:14:04;;;;;;;9.20;3.50;;;;;;;6.50;100.00;100348.11;105681;1254;74291;-53
2023/04/26 01:16:31;;;;;;;7.00;3.20;;;;;;;6.50;100.00;100365.08;105711;1259;66147;-52
2023/04/26 01:19:06;;;;;;;5.90;3.30;;;;;;;6.51;100.00;100379.30;105624;1257;74258;-51
2023/04/26 01:21:33;;;;;;;7.50;3.20;;;;;;;6.51;100.00;100393.71;105681;1255;63011;-55
2023/04/26 01:24:00;;;;;;;4.00;2.90;;;;;;;6.52;100.00;100398.84;105652;1259;62580;-50
2023/04/26 01:26:29;;;;;;;14.10;3.50;;;;;;;6.50;100.00;100403.15;105676;1259;74657;-50
2023/04/26 01:28:57;;;;;;;8.70;3.80;;;;;;;6.50;100.00;100406.40;105650;1254;66039;-50
2023/04/26 01:31:24;;;;;;;14.70;3.90;;;;;;;6.50;100.00;100408.80;105798;1255;75228;-50
2023/04/26 01:33:52;;;;;;;9.30;3.20;;;;;;;6.51;100.00;100408.45;105860;1254;63741;-50
2023/04/26 01:36:19;;;;;;;7.80;3.30;;;;;;;6.53;100.00;100414.27;105858;1257;62594;-50
2023/04/26 01:38:46;;;;;;;9.20;3.10;;;;;;;6.53;100.00;100418.73;105912;1253;74465;-50
2023/04/26 01:41:13;;;;;;;6.10;3.20;;;;;;;6.53;100.00;100422.85;105675;1253;65669;-50
2023/04/26 01:43:40;;;;;;;6.20;3.30;;;;;;;6.52;100.00;100423.53;105862;1256;75004;-50
2023/04/26 01:46:07;;;;;;;6.60;4.10;;;;;;;6.53;100.00;100419.07;105860;1251;62665;-50
2023/04/26 01:48:34;;;;;;;10.20;3.60;;;;;;;6.58;100.00;100423.88;105812;1257;62072;-50
2023/04/26 01:51:01;;;;;;;5.00;3.60;;;;;;;6.63;100.00;100427.45;105854;1256;76745;-50
2023/04/26 01:53:28;;;;;;;5.50;3.20;;;;;;;6.68;100.00;100430.19;105700;1260;66234;-50
2023/04/26 01:56:00;;;;;;;7.30;3.10;;;;;;;6.71;100.00;100431.21;105922;1254;74451;-50
2023/04/26 01:58:30;;;;;;;4.20;3.00;;;;;;;6.74;100.00;100433.95;105895;1254;62265;-50
2023/04/26 02:01:04;;;;;;;6.10;3.70;;;;;;;6.77;100.00;100435.31;105896;1253;61746;-50
2023/04/26 02:03:31;;;;;;;12.80;3.80;;;;;;;6.81;100.00;100439.58;105886;1256;76513;-51
2023/04/26 02:05:58;;;;;;;5.00;3.20;;;;;;;6.86;100.00;100441.63;105908;1257;65756;-50
2023/04/26 02:08:27;;;;;;;13.60;3.30;;;;;;;6.92;100.00;100446.23;105911;1254;75299;-50
2023/04/26 02:10:55;;;;;;;7.30;2.90;;;;;;;6.95;100.00;100451.20;105804;1255;63434;-50
2023/04/26 02:13:22;;;;;;;6.30;3.00;;;;;;;6.98;100.00;100452.56;105704;1258;61708;-50
2023/04/26 02:15:50;;;;;;;6.40;3.20;;;;;;;7.04;100.00;100453.05;105882;1256;74303;-51
2023/04/26 02:18:20;;;;;;;9.10;3.30;;;;;;;7.10;100.00;100458.02;105910;1257;66124;-50
2023/04/26 02:20:49;;;;;;;8.60;3.20;;;;;;;7.17;100.00;100461.25;105692;1254;75639;-50
2023/04/26 02:23:16;;;;;;;8.80;2.90;;;;;;;7.24;100.00;100463.11;105852;1257;64607;-50
2023/04/26 02:25:47;;;;;;;5.00;2.90;;;;;;;7.30;100.00;100464.45;105907;1257;60834;-51
2023/04/26 02:28:16;;;;;;;10.10;3.30;;;;;;;7.34;100.00;100462.54;105872;1253;75666;-50
2023/04/26 02:30:43;;;;;;;6.20;3.10;;;;;;;7.37;100.00;100462.53;105896;1254;66869;-50
2023/04/26 02:33:10;;;;;;;6.40;3.10;;;;;;;7.40;100.00;100458.73;105864;1257;74904;-51
2023/04/26 02:35:38;;;;;;;6.70;2.90;;;;;;;7.45;100.00;100448.23;105878;1254;62921;-50
2023/04/26 02:38:05;;;;;;;8.30;3.40;;;;;;;7.49;100.00;100445.46;105879;1253;61840;-50
2023/04/26 02:40:32;;;;;;;6.70;3.20;;;;;;;7.53;100.00;100440.47;105872;1257;75451;-51
2023/04/26 02:43:00;;;;;;;7.70;3.20;;;;;;;7.58;100.00;100438.54;105866;1254;65391;-50
2023/04/26 02:45:27;;;;;;;8.50;3.40;;;;;;;7.62;100.00;100439.55;105877;1253;74104;-51
2023/04/26 02:47:54;;;;;;;10.10;3.70;;;;;;;7.66;100.00;100428.52;105679;1259;64561;-50
2023/04/26 02:50:22;;;;;;;5.90;3.00;;;;;;;7.70;100.00;100422.30;105810;1258;61711;-50
2023/04/26 02:52:49;;;;;;;5.70;2.90;;;;;;;7.74;100.00;100407.00;105933;1256;76776;-51
2023/04/26 02:55:16;;;;;;;6.70;3.20;;;;;;;7.81;100.00;100392.00;105857;1257;66192;-50
2023/04/26 02:57:43;;;;;;;9.40;3.20;;;;;;;7.87;100.00;100378.72;105798;1254;74475;-50
2023/04/26 03:00:12;;;;;;;6.40;3.00;;;;;;;7.92;100.00;100367.17;105828;1251;64332;-50
2023/04/26 03:02:40;;;;;;;5.50;3.00;;;;;;;7.95;100.00;100352.70;105872;1255;62619;-50
2023/04/26 03:05:08;;;;;;;9.60;3.30;;;;;;;7.97;100.00;100345.48;105864;1254;75288;-50
2023/04/26 03:07:36;;;;;;;9.30;3.10;;;;;;;7.99;100.00;100332.56;105910;1257;66810;-50
2023/04/26 03:10:04;;;;;;;5.40;3.10;;;;;;;8.01;100.00;100318.98;105885;1255;73226;-51
2023/04/26 03:12:32;;;;;;;5.30;2.80;;;;;;;8.04;100.00;100311.38;105920;1253;64755;-50
2023/04/26 03:15:02;;;;;;;8.30;3.20;;;;;;;8.09;100.00;100306.35;105743;1252;62581;-50
2023/04/26 03:17:29;;;;;;;4.60;2.70;;;;;;;8.13;100.00;100302.69;105857;1257;75332;-50
2023/04/26 03:19:56;;;;;;;8.00;3.30;;;;;;;8.20;100.00;100297.46;105840;1254;67489;-50
2023/04/26 03:22:26;;;;;;;5.40;3.40;;;;;;;8.27;100.00;100285.18;105730;1253;75158;-50
2023/04/26 03:24:53;;;;;;;7.80;3.00;;;;;;;8.33;100.00;100276.67;105843;1257;61582;-50
2023/04/26 03:27:20;;;;;;;7.50;2.90;;;;;;;8.40;100.00;100254.74;105822;1257;61124;-50
2023/04/26 03:29:47;;;;;;;6.20;3.00;;;;;;;8.49;100.00;100229.54;105776;1252;74980;-50
2023/04/26 03:32:15;;;;;;;5.00;2.80;;;;;;;8.57;100.00;100202.79;105865;1255;66446;-51
2023/04/26 03:34:42;;;;;;;5.70;2.70;;;;;;;8.64;100.00;100180.16;105908;1257;74104;-51
2023/04/26 03:37:09;;;;;;;6.30;2.90;;;;;;;8.70;100.00;100155.14;105828;1257;61232;-51
2023/04/26 03:39:36;;;;;;;8.20;3.20;;;;;;;8.75;100.00;100129.25;105926;1253;63437;-51
2023/04/26 03:42:03;;;;;;;9.40;3.40;;;;;;;8.81;100.00;100103.52;105886;1257;76169;-50
2023/04/26 03:44:32;;;;;;;4.50;2.80;;;;;;;8.86;100.00;100069.88;105874;1257;67432;-51
2023/04/26 03:46:59;;;;;;;6.60;3.00;;;;;;;8.91;100.00;100049.81;105902;1254;73853;-52
2023/04/26 03:49:27;;;;;;;3.40;2.70;;;;;;;8.96;100.00;100023.75;105876;1254;64289;-53
2023/04/26 03:51:54;;;;;;;7.60;2.90;;;;;;;9.01;100.00;99998.36;105856;1254;60828;-53
2023/04/26 03:54:21;;;;;;;7.90;3.00;;;;;;;9.07;100.00;99978.10;105584;1257;74686;-51
2023/04/26 03:56:48;;;;;;;8.70;3.20;;;;;;;9.11;100.00;99951.51;105718;1257;66118;-51
2023/04/26 03:59:15;;;;;;;6.10;3.20;;;;;;;9.19;100.00;99909.66;105838;1254;74381;-52
2023/04/26 04:01:42;;;;;;;7.50;2.80;;;;;;;9.28;100.00;99882.14;105815;1257;63464;-50
2023/04/26 04:04:09;;;;;;;7.50;2.60;;;;;;;9.35;100.00;99859.58;105834;1254;60942;-51
2023/04/26 04:06:38;;;;;;;5.80;2.80;;;;;;;9.43;100.00;99838.72;105902;1257;76560;-50
2023/04/26 04:09:05;;;;;;;7.60;2.70;;;;;;;9.53;100.00;99815.08;105845;1254;67450;-50
2023/04/26 04:11:32;;;;;;;6.20;3.30;;;;;;;9.60;100.00;99786.14;105859;1254;74120;-50
2023/04/26 04:13:59;;;;;;;8.20;3.20;;;;;;;9.67;100.00;99758.05;105864;1257;63173;-52
2023/04/26 04:16:27;;;;;;;8.30;2.60;;;;;;;9.74;100.00;99728.75;105877;1257;61793;-52
2023/04/26 04:18:54;;;;;;;7.10;3.00;;;;;;;9.81;100.00;99706.52;105902;1256;75568;-52
2023/04/26 04:21:21;;;;;;;5.50;3.20;;;;;;;9.88;100.00;99692.35;105718;1254;66161;-51
2023/04/26 04:23:49;;;;;;;11.30;3.20;;;;;;;9.94;100.00;99681.66;105686;1257;75369;-51
2023/04/26 04:26:17;;;;;;;5.80;3.50;;;;;;;10.00;100.00;99671.17;105775;1254;61044;-51
2023/04/26 04:28:45;;;;;;;4.20;3.20;;;;;;;10.06;100.00;99665.48;105886;1257;61654;-51
2023/04/26 04:31:13;;;;;;;9.00;3.00;;;;;;;10.12;100.00;99662.23;105805;1257;75458;-51
2023/04/26 04:33:40;;;;;;;6.90;3.00;;;;;;;10.18;100.00;99661.67;105860;1254;67644;-51
2023/04/26 04:36:08;;;;;;;6.10;2.40;;;;;;;10.25;100.00;99659.77;105887;1254;74644;-56
2023/04/26 04:38:35;;;;;;;3.20;2.70;;;;;;;10.33;100.00;99657.81;105719;1259;61732;-55
2023/04/26 04:41:03;;;;;;;2.80;2.60;;;;;;;10.41;100.00;99659.31;105923;1257;61524;-51
2023/04/26 04:43:32;;;;;;;3.00;2.70;;;;;;;10.52;100.00;99664.70;105874;1256;76583;-56
2023/04/26 04:46:00;;;;;;;4.60;3.00;;;;;;;10.60;100.00;99670.98;105906;1254;65297;-52
2023/04/26 04:48:27;;;;;;;8.00;3.30;;;;;;;10.67;100.00;99676.84;105837;1257;75191;-53
2023/04/26 04:50:54;;;;;;;7.80;3.10;;;;;;;10.72;100.00;99685.29;105859;1258;64123;-51
2023/04/26 04:53:22;;;;;;;9.90;2.80;;;;;;;10.78;100.00;99689.95;105908;1256;63138;-51
2023/04/26 04:55:49;;;;;;;8.60;3.30;;;;;;;10.85;100.00;99694.73;105848;1256;76291;-52
2023/04/26 04:58:17;;;;;;;7.60;3.30;;;;;;;10.92;100.00;99706.77;105915;1254;65429;-52
2023/04/26 05:00:45;;;;;;;18.00;3.60;;;;;;;10.98;100.00;99713.81;105874;1260;74090;-50
2023/04/26 05:03:23;;;;;;;6.30;3.40;;;;;;;11.07;100.00;99718.19;105820;1252;62227;-51
2023/04/26 05:05:51;;;;;;;7.00;2.80;;;;;;;11.17;100.00;99720.46;105866;1256;62797;-51
2023/04/26 05:08:18;;;;;;;8.70;4.00;;;;;;;11.26;100.00;99729.86;105828;1257;74864;-51
2023/04/26 05:10:45;;;;;;;8.40;3.20;;;;;;;11.30;100.00;99745.42;105871;1254;66312;-51
2023/04/26 05:13:12;;;;;;;8.00;3.60;;;;;;;11.36;100.00;99751.47;105672;1254;74901;-52
2023/04/26 05:15:39;;;;;;;5.30;3.20;;;;;;;11.44;100.00;99749.46;105834;1252;60845;-51
2023/04/26 05:18:06;;;;;;;8.60;3.50;;;;;;;11.58;100.00;99743.65;105831;1257;62907;-52
2023/04/26 05:20:34;;;;;;;13.30;3.60;;;;;;;11.71;100.00;99757.20;105859;1252;76289;-52
2023/04/26 05:23:01;;;;;;;9.00;3.00;;;;;;;11.82;100.00;99777.09;105694;1259;67084;-51
2023/04/26 05:25:28;;;;;;;6.30;2.80;;;;;;;11.93;100.00;99792.44;105869;1254;74097;-52
2023/04/26 05:28:04;;;;;;;6.90;3.10;;;;;;;12.03;100.00;99807.16;105846;1257;61230;-52
2023/04/26 05:30:48;;;;;;;5.30;3.20;;;;;;;12.21;100.00;99810.02;105837;1256;61061;-51
2023/04/26 05:33:25;;;;;;;8.90;3.60;;;;;;;12.42;100.00;99819.45;105866;1256;76586;-52
2023/04/26 05:36:10;;;;;;;6.30;3.00;;;;;;;12.61;100.00;99837.10;105847;1257;66486;-52
2023/04/26 05:38:37;;;;;;;7.30;3.30;;;;;;;12.77;100.00;99853.84;105804;1254;74104;-51
2023/04/26 05:41:04;;;;;;;4.50;3.30;;;;;;;12.94;100.00;99868.29;105688;1259;63242;-51
2023/04/26 05:43:31;;;;;;;7.50;3.00;;;;;;;13.10;100.00;99874.27;105876;1257;63068;-52
2023/04/26 05:45:59;;;;;;;5.70;2.60;;;;;;;13.27;100.00;99890.27;105736;1260;73995;-50
2023/04/26 05:48:26;;;;;;;8.50;2.60;;;;;;;13.42;100.00;99896.96;105726;1258;66790;-51
2023/04/26 05:50:54;;;;;;;6.60;3.00;;;;;;;13.56;100.00;99912.38;105838;1257;74886;-52
2023/04/26 05:53:21;;;;;;;7.10;2.90;;;;;;;13.71;100.00;99922.55;105905;1254;63220;-51
2023/04/26 05:55:48;;;;;;;4.70;2.70;;;;;;;13.88;100.00;99937.34;105914;1257;61391;-52
2023/04/26 05:58:16;;;;;;;5.80;2.70;;;;;;;13.97;100.00;99952.05;105851;1252;75958;-52
2023/04/26 06:00:43;;;;;;;10.80;2.90;;;;;;;14.03;100.00;99958.92;105904;1252;67529;-52
2023/04/26 06:03:11;;;;;;;5.80;2.80;;;;;;;14.08;100.00;99964.09;105874;1257;75162;-52
2023/04/26 06:05:38;;;;;;;4.60;2.70;;;;;;;14.14;100.00;99970.27;105860;1257;61781;-52
2023/04/26 06:08:05;;;;;;;9.30;2.70;;;;;;;14.21;100.00;99972.40;105923;1257;62890;-51
2023/04/26 06:10:34;;;;;;;6.20;2.40;;;;;;;14.32;100.00;99970.73;105939;1256;76522;-51
2023/04/26 06:13:01;;;;;;;5.60;2.60;;;;;;;14.35;100.00;99986.40;105712;1255;66571;-51
2023/04/26 06:15:30;;;;;;;8.80;2.60;;;;;;;14.38;100.00;99992.52;105894;1255;74545;-51
2023/04/26 06:17:58;;;;;;;4.10;2.40;;;;;;;14.46;100.00;100002.29;105897;1256;63109;-51
2023/04/26 06:20:25;;;;;;;5.20;2.40;;;;;;;14.54;100.00;100006.83;105841;1253;62298;-52
2023/04/26 06:22:53;;;;;;;8.10;2.40;;;;;;;14.62;100.00;100012.02;105875;1257;76049;-52
2023/04/26 06:25:20;;;;;;;7.10;2.60;;;;;;;14.69;100.00;100013.67;105874;1256;66021;-51
2023/04/26 06:27:48;;;;;;;5.60;2.20;;;;;;;14.77;100.00;100014.91;105829;1258;74999;-52
2023/04/26 06:30:15;;;;;;;9.00;2.20;;;;;;;14.90;100.00;100019.40;105902;1256;63119;-52
2023/04/26 06:32:45;;;;;;;4.70;1.90;;;;;;;15.01;100.00;100028.48;105834;1254;62618;-51
2023/04/26 06:35:13;;;;;;;6.40;1.80;;;;;;;15.24;98.73;100036.34;105914;1257;74511;-51
2023/04/26 06:37:41;;;;;;;3.80;1.80;;;;;;;15.57;92.46;100025.63;105769;1259;66138;-52
2023/04/26 06:40:10;;;;;;;5.80;1.80;;;;;;;15.89;70.59;100007.84;105898;1257;73952;-51
2023/04/26 06:42:37;;;;;;;7.40;1.90;;;;;;;16.04;63.86;99992.67;105920;1255;63340;-54
2023/04/26 06:45:25;;;;;;;5.60;2.00;;;;;;;16.05;60.66;99994.38;105377;1257;500958;-51
2023/04/26 06:50:18;;;;;;;6.30;2.60;;;;;;;15.88;58.68;100005.48;102556;1293;600576;-54
2023/04/26 06:52:46;;;;;;;3.30;2.20;;;;;;;15.72;59.74;100056.96;104711;1272;62626;-54
2023/04/26 06:55:13;;;;;;;4.50;2.30;;;;;;;15.79;59.98;100056.64;104891;1267;62189;-55
2023/04/26 06:57:41;;;;;;;4.90;2.00;;;;;;;15.95;58.05;100023.07;104849;1272;74154;-54
2023/04/26 07:00:09;;;;;;;8.10;2.70;;;;;;;16.15;58.07;100040.86;104843;1269;65874;-52
2023/04/26 07:02:36;;;;;;;8.60;2.20;;;;;;;16.32;57.28;100031.02;104820;1271;74784;-54
2023/04/26 07:05:05;;;;;;;5.00;2.30;;;;;;;16.37;56.84;100032.52;104730;1263;206927;-51
2023/04/26 07:07:32;;;;;;;8.40;2.30;;;;;;;16.48;57.16;100048.36;104928;1263;63162;-52
2023/04/26 07:09:59;;;;;;;4.00;2.90;;;;;;;16.64;55.46;100000.73;104923;1263;73705;-51
2023/04/26 07:12:26;;;;;;;7.40;3.00;;;;;;;16.73;54.39;99981.81;105382;1263;66116;-53
2023/04/26 07:14:54;;;;;;;5.50;2.10;;;;;;;16.76;52.65;99933.02;105294;1257;75048;-53
2023/04/26 07:17:21;;;;;;;11.40;2.40;;;;;;;16.80;52.97;99981.80;105445;1257;62812;-52
2023/04/26 07:19:48;;;;;;;12.80;2.90;;;;;;;16.93;52.90;99988.42;105475;1262;61758;-53
2023/04/26 07:22:15;;;;;;;7.00;2.60;;;;;;;17.06;52.55;99976.27;105521;1257;74209;-51
2023/04/26 07:24:43;;;;;;;9.00;2.60;;;;;;;17.14;50.53;99879.80;105430;1258;66260;-53
2023/04/26 07:27:10;;;;;;;5.70;2.50;;;;;;;17.19;51.44;99966.89;105490;1262;74998;-53
2023/04/26 07:29:37;;;;;;;15.70;5.00;;;;;;;17.30;50.43;99910.14;105512;1258;62874;-52
2023/04/26 07:32:05;;;;;;;10.50;2.90;;;;;;;17.42;49.58;99870.42;105432;1258;62497;-52
2023/04/26 07:34:32;;;;;;;9.70;2.90;;;;;;;17.50;48.29;99810.00;105409;1257;75496;-52
2023/04/26 07:36:59;;;;;;;8.10;2.50;;;;;;;17.50;48.04;99824.44;105362;1257;66544;-52
2023/04/26 07:39:26;;;;;;;9.80;3.10;;;;;;;17.65;48.75;99875.05;105469;1263;75525;-52
2023/04/26 07:41:54;;;;;;;15.50;2.80;;;;;;;17.90;47.60;99801.52;105685;1254;62206;-53
2023/04/26 07:44:21;;;;;;;8.60;3.20;;;;;;;17.92;47.59;99808.42;105684;1254;62230;-53
2023/04/26 07:46:48;;;;;;;6.60;3.00;;;;;;;17.82;48.30;99876.89;105687;1259;75611;-52
2023/04/26 07:49:15;;;;;;;10.00;2.90;;;;;;;17.90;49.55;99970.47;105637;1254;67376;-52
2023/04/26 07:51:43;;;;;;;9.40;3.10;;;;;;;18.17;48.85;99906.14;105632;1254;74567;-53
2023/04/26 07:54:10;;;;;;;7.30;3.00;;;;;;;18.23;48.62;99893.38;105692;1254;62741;-52
2023/04/26 07:56:37;;;;;;;8.20;3.50;;;;;;;18.14;48.87;99924.50;105727;1254;62835;-52
2023/04/26 07:59:04;;;;;;;10.70;3.70;;;;;;;18.01;49.77;99985.77;105707;1258;76301;-54
2023/04/26 08:01:31;;;;;;;14.90;3.90;;;;;;;17.98;49.94;99996.90;105701;1254;66475;-56
2023/04/26 08:03:58;;;;;;;11.60;3.20;;;;;;;18.14;50.19;100008.45;105648;1257;73013;-54
2023/04/26 08:06:28;;;;;;;6.60;3.00;;;;;;;18.43;48.39;99885.57;105746;1260;61833;-52
2023/04/26 08:08:55;;;;;;;10.10;3.30;;;;;;;18.55;48.49;99907.19;105703;1259;61955;-58
2023/04/26 08:11:22;;;;;;;12.10;3.40;;;;;;;18.75;48.26;99893.27;105687;1259;75428;-56
2023/04/26 08:13:49;;;;;;;5.60;2.70;;;;;;;18.98;48.04;99878.90;105679;1254;65912;-51
2023/04/26 08:16:16;;;;;;;5.80;2.60;;;;;;;19.02;46.45;99771.32;105677;1257;74449;-51
2023/04/26 08:18:44;;;;;;;5.90;3.20;;;;;;;18.83;46.84;99815.35;105666;1259;61595;-53
2023/04/26 08:21:12;;;;;;;9.60;2.80;;;;;;;18.75;46.89;99831.60;105695;1259;61756;-52
2023/04/26 08:23:40;;;;;;;10.30;3.10;;;;;;;18.82;47.88;99907.34;105675;1259;75926;-53
2023/04/26 08:26:07;;;;;;;5.60;2.90;;;;;;;18.97;46.79;99823.92;105681;1254;67108;-51
2023/04/26 08:28:34;;;;;;;4.60;3.00;;;;;;;19.10;47.16;99857.38;105654;1254;75173;-53
2023/04/26 08:31:02;;;;;;;10.80;3.10;;;;;;;19.29;46.76;99832.77;105649;1259;61411;-51
2023/04/26 08:33:29;;;;;;;7.50;3.10;;;;;;;19.42;46.89;99839.42;105706;1259;62230;-52
2023/04/26 08:36:00;;;;;;;13.80;3.30;;;;;;;19.60;47.38;99889.17;105701;1258;74311;-53
2023/04/26 08:38:28;;;;;;;16.00;3.40;;;;;;;19.95;46.61;99826.15;105730;1259;67136;-52
2023/04/26 08:40:55;;;;;;;11.20;3.10;;;;;;;20.20;46.38;99811.19;105675;1259;74209;-52
2023/04/26 08:43:22;;;;;;;10.80;3.30;;;;;;;20.34;46.60;99827.39;105698;1254;62970;-53
2023/04/26 08:45:49;;;;;;;11.70;3.10;;;;;;;20.59;46.98;99866.16;105659;1259;60857;-52
2023/04/26 08:48:16;;;;;;;9.60;3.00;;;;;;;20.87;45.42;99748.02;105659;1254;74754;-52
2023/04/26 08:50:45;;;;;;;8.60;2.90;;;;;;;20.95;44.83;99715.63;105719;1259;66116;-52
2023/04/26 08:53:13;;;;;;;10.50;2.50;;;;;;;20.95;44.63;99696.54;105708;1257;74195;-53
2023/04/26 08:55:41;;;;;;;11.70;2.80;;;;;;;20.96;44.86;99724.19;105696;1254;62542;-52
2023/04/26 08:58:09;;;;;;;10.10;2.50;;;;;;;21.05;45.23;99765.31;105695;1254;62643;-53
2023/04/26 09:00:36;;;;;;;17.50;3.40;;;;;;;21.17;43.97;99659.33;105670;1263;74531;-53
2023/04/26 09:03:03;;;;;;;9.50;2.80;;;;;;;21.17;43.32;99616.35;105616;1254;66945;-53
2023/04/26 09:05:32;;;;;;;8.40;2.90;;;;;;;20.96;43.49;99642.27;105661;1259;73604;-51
2023/04/26 09:08:01;;;;;;;4.80;2.20;;;;;;;20.76;44.90;99762.42;105710;1260;62698;-52
2023/04/26 09:10:28;;;;;;;8.00;2.70;;;;;;;20.91;45.68;99827.30;105729;1260;62898;-52
2023/04/26 09:12:55;;;;;;;10.30;2.80;;;;;;;21.22;45.02;99761.94;105688;1259;74968;-52
2023/04/26 09:15:23;;;;;;;5.20;2.30;;;;;;;21.34;44.20;99700.48;105698;1260;65914;-53
2023/04/26 09:17:51;;;;;;;9.30;2.30;;;;;;;21.30;44.49;99726.94;105672;1259;74657;-52
2023/04/26 09:20:29;;;;;;;7.90;2.50;;;;;;;21.21;44.59;99741.29;105705;1254;62091;-52
2023/04/26 09:23:07;;;;;;;7.30;2.40;;;;;;;21.20;45.28;99792.94;105731;1260;61808;-53
2023/04/26 09:25:34;;;;;;;5.40;2.10;;;;;;;21.19;44.27;99709.52;105715;1254;74903;-51
2023/04/26 09:28:02;;;;;;;7.80;2.70;;;;;;;21.07;44.23;99711.25;105692;1254;67123;-52
2023/04/26 09:30:30;;;;;;;8.60;2.20;;;;;;;21.04;44.34;99719.20;105719;1256;74880;-53
2023/04/26 09:33:02;;;;;;;6.70;2.60;;;;;;;21.13;44.34;99720.86;105719;1256;62153;-52
2023/04/26 09:35:34;;;;;;;10.40;2.10;;;;;;;21.16;42.93;99615.52;105722;1259;62129;-52
2023/04/26 09:38:02;;;;;;;7.30;1.90;;;;;;;21.09;43.99;99700.62;105733;1254;74787;-53
2023/04/26 09:40:41;;;;;;;8.00;2.00;;;;;;;21.23;43.05;99633.27;105675;1254;66233;-53
2023/04/26 09:43:10;;;;;;;7.70;2.30;;;;;;;21.18;43.37;99661.71;105422;1258;74242;-53
2023/04/26 09:45:56;;;;;;;5.80;2.50;;;;;;;21.38;44.27;99745.30;105498;1259;62897;-53
2023/04/26 09:48:29;;;;;;;15.00;3.40;;;;;;;21.74;42.24;99567.05;105959;1254;61360;-54
2023/04/26 09:50:58;;;;;;;3.70;1.80;;;;;;;21.78;43.15;99636.30;105555;1260;75301;-52
2023/04/26 09:53:36;;;;;;;9.20;2.30;;;;;;;21.88;42.99;99646.35;105758;1259;67139;-52
2023/04/26 09:56:17;;;;;;;8.90;2.00;;;;;;;22.07;41.30;99519.11;105588;1259;75388;-52
2023/04/26 09:58:57;;;;;;;3.10;1.80;;;;;;;22.19;42.44;99604.78;105581;1260;62179;-54
2023/04/26 10:01:25;;;;;;;9.20;1.90;;;;;;;22.37;41.69;99555.71;105724;1270;62104;-52
2023/04/26 10:03:53;;;;;;;7.20;2.30;;;;;;;22.52;42.30;99599.86;105732;1259;75236;-53
2023/04/26 10:06:20;;;;;;;11.60;2.30;;;;;;;22.71;42.66;99646.88;105688;1263;67775;-52
2023/04/26 10:08:47;;;;;;;6.70;1.90;;;;;;;22.81;40.78;99497.23;105615;1254;73382;-52
2023/04/26 10:11:14;;;;;;;5.40;2.30;;;;;;;22.58;41.08;99525.20;105556;1259;62838;-52
2023/04/26 10:13:41;;;;;;;20.90;3.90;;;;;;;22.36;42.75;99651.69;105553;1254;61543;-54
2023/04/26 10:16:08;;;;;;;8.80;2.70;;;;;;;22.51;42.19;99622.28;105774;1259;74608;-53
2023/04/26 10:18:36;;;;;;;7.80;2.00;;;;;;;22.80;40.03;99444.92;105622;1259;66185;-53
2023/04/26 10:21:21;;;;;;;10.20;1.90;;;;;;;22.99;40.25;99456.01;105600;1254;74613;-53
2023/04/26 10:23:48;;;;;;;3.30;1.90;;;;;;;23.01;39.16;99384.09;105591;1260;62715;-53
2023/04/26 10:26:48;;;;;;;11.20;2.00;;;;;;;23.04;40.60;99489.17;105781;1254;62807;-53
2023/04/26 10:29:15;;;;;;;5.00;1.80;;;;;;;23.17;39.38;99416.05;105779;1259;75396;-52
2023/04/26 10:32:00;;;;;;;2.00;1.70;;;;;;;22.98;39.11;99391.33;105919;1259;65991;-54
2023/04/26 10:34:30;;;;;;;10.30;1.70;;;;;;;22.55;39.98;99466.24;105596;1254;74174;-52
2023/04/26 10:37:16;;;;;;;4.60;1.60;;;;;;;22.19;40.30;99526.45;105659;1257;63592;-53
2023/04/26 10:39:44;;;;;;;10.80;1.80;;;;;;;21.73;40.87;99568.75;105644;1260;60975;-54
2023/04/26 10:42:24;;;;;;;7.00;1.80;;;;;;;21.42;42.07;99677.45;105705;1254;74435;-52
2023/04/26 10:44:52;;;;;;;5.70;1.70;;;;;;;21.37;42.31;99712.92;105676;1260;66285;-53
2023/04/26 10:47:40;;;;;;;7.40;1.70;;;;;;;21.54;42.80;99741.17;105710;1260;74859;-52
2023/04/26 10:50:09;;;;;;;17.30;1.60;;;;;;;21.87;43.09;99756.52;105599;1260;62656;-52
2023/04/26 10:52:38;;;;;;;5.80;1.50;;;;;;;22.21;42.41;99694.03;105595;1260;62812;-52
2023/04/26 10:55:06;;;;;;;7.50;2.30;;;;;;;22.60;41.06;99589.01;105593;1260;75343;-51
2023/04/26 10:57:53;;;;;;;6.00;1.90;;;;;;;22.85;40.52;99532.42;105685;1256;67733;-52
2023/04/26 11:00:28;;;;;;;2.90;1.40;;;;;;;22.97;40.34;99524.77;105672;1261;75255;-53
2023/04/26 11:03:02;;;;;;;5.10;2.00;;;;;;;22.93;37.44;99300.69;105574;1260;63492;-52
2023/04/26 11:05:52;;;;;;;11.60;1.60;;;;;;;22.63;36.87;99253.84;105605;1258;62810;-51
2023/04/26 11:08:30;;;;;;;4.60;1.90;;;;;;;22.27;38.18;99370.42;105722;1254;76044;-52
2023/04/26 11:10:58;;;;;;;3.40;1.40;;;;;;;21.99;38.87;99444.96;105643;1257;66175;-55
2023/04/26 11:13:25;;;;;;;6.50;1.60;;;;;;;21.78;38.96;99466.67;105711;1259;74153;-54
2023/04/26 11:15:53;;;;;;;3.90;2.10;;;;;;;21.51;38.31;99430.91;105566;1260;60779;-55
2023/04/26 11:18:21;;;;;;;3.70;1.10;;;;;;;21.19;38.89;99474.67;105710;1261;61956;-54
2023/04/26 11:20:48;;;;;;;6.30;1.30;;;;;;;20.91;38.56;99457.52;105595;1259;76136;-52
2023/04/26 11:23:17;;;;;;;5.30;1.40;;;;;;;20.66;39.14;99505.86;105536;1258;67088;-52
2023/04/26 11:25:44;;;;;;;2.80;1.40;;;;;;;20.48;40.55;99616.89;105569;1258;73442;-55
2023/04/26 11:28:11;;;;;;;9.80;1.80;;;;;;;20.32;40.68;99647.61;105632;1254;61757;-53